createdAt,value
2022-08-10T00:00:09.526Z,34.25
2022-08-10T00:02:08.650Z,34.28
2022-08-10T00:04:08.761Z,34.34
2022-08-10T00:07:24.696Z,34.02
2022-08-10T00:09:24.760Z,34.47
2022-08-10T00:11:24.886Z,34.49
2022-08-10T00:13:25.002Z,34.51
2022-08-10T00:15:52.701Z,34.51
2022-08-10T00:17:26.223Z,34.50
2022-08-10T00:19:25.307Z,34.52
2022-08-10T00:21:27.169Z,34.53
2022-08-10T00:23:25.527Z,34.54
2022-08-10T00:25:25.605Z,34.60
2022-08-10T00:28:01.292Z,34.60
2022-08-10T00:29:26.873Z,34.63
2022-08-10T00:31:25.958Z,34.61
2022-08-10T00:33:26.071Z,34.58
2022-08-10T00:35:26.180Z,34.59
2022-08-10T00:37:26.271Z,34.61
2022-08-10T00:39:26.467Z,34.65
2022-08-10T00:41:26.470Z,34.71
2022-08-10T00:43:26.550Z,34.73
2022-08-10T00:45:26.672Z,34.76
2022-08-10T00:47:36.996Z,34.77
2022-08-10T00:49:27.855Z,34.79
2022-08-10T00:51:47.933Z,34.84
2022-08-10T00:53:28.073Z,34.89
2022-08-10T00:55:27.264Z,34.91
2022-08-10T00:57:27.361Z,34.95
2022-08-10T00:59:27.432Z,35.03
2022-08-10T01:02:07.329Z,35.03
2022-08-10T01:04:39.767Z,35.07
2022-08-10T01:05:28.867Z,35.09
2022-08-10T01:07:28.066Z,35.08
2022-08-10T01:09:28.110Z,35.12
2022-08-10T01:12:37.353Z,35.13
2022-08-10T01:13:29.319Z,35.15
2022-08-10T01:15:28.454Z,35.16
2022-08-10T01:17:50.935Z,35.19
2022-08-10T01:19:29.639Z,35.25
2022-08-10T01:21:28.779Z,35.31
2022-08-10T01:23:28.865Z,35.36
2022-08-10T01:25:28.964Z,35.42
2022-08-10T01:27:29.082Z,35.47
2022-08-10T01:29:29.207Z,35.53
2022-08-10T01:31:29.278Z,35.60
2022-08-10T01:33:58.088Z,35.65
2022-08-10T01:35:30.591Z,35.76
2022-08-10T01:37:29.740Z,35.84
2022-08-10T01:39:29.902Z,35.92
2022-08-10T01:41:30.016Z,36.00
2022-08-10T01:43:31.868Z,36.10
2022-08-10T01:45:30.310Z,36.16
2022-08-10T01:47:31.410Z,36.25
2022-08-10T01:49:30.549Z,36.32
2022-08-10T01:51:30.682Z,36.39
2022-08-10T01:53:40.951Z,36.44
2022-08-10T01:55:31.914Z,36.50
2022-08-10T01:57:31.002Z,36.56
2022-08-10T01:59:31.106Z,36.62
2022-08-10T02:01:31.303Z,36.67
2022-08-10T02:03:31.294Z,36.73
2022-08-10T02:05:31.417Z,36.74
2022-08-10T02:07:31.510Z,36.78
2022-08-10T02:09:31.867Z,36.84
2022-08-10T02:12:05.844Z,36.94
2022-08-10T02:13:32.895Z,37.02
2022-08-10T02:15:31.968Z,37.09
2022-08-10T02:17:57.545Z,37.16
2022-08-10T02:19:33.184Z,37.24
2022-08-10T02:21:32.378Z,37.33
2022-08-10T02:23:32.445Z,37.42
2022-08-10T02:25:42.123Z,37.52
2022-08-10T02:27:33.642Z,37.61
2022-08-10T02:29:32.770Z,37.70
2022-08-10T02:31:32.942Z,37.79
2022-08-10T02:33:33.027Z,37.89
2022-08-10T02:35:54.652Z,37.97
2022-08-10T02:37:34.336Z,38.07
2022-08-10T02:39:33.412Z,38.11
2022-08-10T02:45:15.217Z,38.16
2022-08-10T02:45:19.468Z,38.22
2022-08-10T02:45:35.058Z,38.28
2022-08-10T02:47:51.105Z,38.31
2022-08-10T02:49:34.898Z,38.37
2022-08-10T02:52:07.290Z,38.40
2022-08-10T02:53:55.473Z,38.45
2022-08-10T02:55:35.249Z,38.48
2022-08-10T02:57:34.378Z,38.51
2022-08-10T02:59:38.565Z,38.51
2022-08-10T03:01:35.652Z,38.54
2022-08-10T03:03:34.698Z,38.59
2022-08-10T03:05:34.898Z,38.62
2022-08-10T03:07:43.744Z,38.65
2022-08-10T03:09:36.051Z,38.70
2022-08-10T03:12:34.955Z,38.72
2022-08-10T03:13:36.284Z,38.79
2022-08-10T03:15:35.354Z,38.84
2022-08-10T03:17:35.466Z,38.90
2022-08-10T03:20:35.110Z,38.96
2022-08-10T03:21:36.681Z,39.05
2022-08-10T03:23:35.748Z,39.10
2022-08-10T03:25:35.874Z,39.17
2022-08-10T03:27:35.962Z,39.25
2022-08-10T03:30:29.410Z,39.30
2022-08-10T03:31:40.277Z,39.35
2022-08-10T03:33:36.289Z,39.40
2022-08-10T03:35:36.391Z,39.41
2022-08-10T03:37:36.487Z,39.46
2022-08-10T03:39:36.624Z,39.50
2022-08-10T03:41:36.698Z,39.55
2022-08-10T03:43:36.801Z,39.57
2022-08-10T03:45:54.403Z,39.62
2022-08-10T03:47:37.990Z,39.66
2022-08-10T03:49:37.132Z,39.69
2022-08-10T03:51:37.229Z,39.71
2022-08-10T03:54:03.176Z,39.74
2022-08-10T03:56:28.815Z,39.80
2022-08-10T03:57:41.789Z,39.84
2022-08-10T03:59:38.673Z,39.90
2022-08-10T04:02:42.211Z,39.92
2022-08-10T04:03:38.937Z,39.98
2022-08-10T04:05:38.922Z,40.01
2022-08-10T04:07:38.237Z,40.05
2022-08-10T04:09:53.680Z,40.08
2022-08-10T04:11:40.603Z,40.17
2022-08-10T04:13:38.577Z,40.24
2022-08-10T04:16:55.045Z,40.01
2022-08-10T04:18:55.178Z,40.46
2022-08-10T04:20:55.273Z,40.49
2022-08-10T04:22:55.450Z,40.51
2022-08-10T04:24:55.560Z,40.55
2022-08-10T04:26:55.713Z,40.57
2022-08-10T04:28:55.858Z,40.61
2022-08-10T04:30:55.971Z,40.64
2022-08-10T04:32:56.106Z,40.66
2022-08-10T04:34:56.210Z,40.68
2022-08-10T04:36:56.318Z,40.68
2022-08-10T04:38:56.479Z,40.69
2022-08-10T04:40:56.581Z,40.69
2022-08-10T04:43:01.310Z,40.73
2022-08-10T04:44:57.841Z,40.76
2022-08-10T04:46:58.222Z,40.79
2022-08-10T04:49:01.462Z,40.81
2022-08-10T04:50:57.277Z,40.86
2022-08-10T04:52:57.401Z,40.91
2022-08-10T04:54:57.558Z,40.92
2022-08-10T04:56:57.655Z,40.94
2022-08-10T04:58:57.817Z,40.96
2022-08-10T05:00:57.928Z,41.01
2022-08-10T05:02:58.025Z,41.03
2022-08-10T05:04:58.199Z,41.06
2022-08-10T05:06:58.306Z,41.07
2022-08-10T05:08:58.425Z,41.07
2022-08-10T05:10:58.570Z,41.09
2022-08-10T05:12:58.671Z,41.11
2022-08-10T05:14:58.795Z,41.12
2022-08-10T05:16:58.922Z,41.14
2022-08-10T05:18:59.006Z,41.12
2022-08-10T05:20:59.157Z,41.12
2022-08-10T05:22:59.311Z,41.10
2022-08-10T05:24:59.446Z,41.11
2022-08-10T05:27:09.436Z,41.10
2022-08-10T05:29:00.714Z,41.13
2022-08-10T05:30:59.866Z,41.16
2022-08-10T05:33:02.812Z,41.16
2022-08-10T05:35:03.005Z,41.22
2022-08-10T05:37:00.230Z,41.26
2022-08-10T05:39:00.348Z,41.31
2022-08-10T05:41:00.497Z,41.38
2022-08-10T05:43:00.620Z,41.45
2022-08-10T05:45:00.740Z,41.45
2022-08-10T05:47:00.900Z,41.49
2022-08-10T05:49:01.977Z,41.49
2022-08-10T05:51:01.129Z,41.54
2022-08-10T05:53:58.722Z,41.58
2022-08-10T05:55:03.050Z,41.65
2022-08-10T05:57:01.511Z,41.66
2022-08-10T05:59:01.659Z,41.72
2022-08-10T06:01:01.880Z,41.77
2022-08-10T06:03:01.884Z,41.80
2022-08-10T06:05:02.003Z,41.83
2022-08-10T06:07:02.130Z,41.85
2022-08-10T06:09:02.267Z,41.83
2022-08-10T06:12:24.385Z,41.86
2022-08-10T06:13:03.966Z,41.87
2022-08-10T06:15:05.524Z,41.94
2022-08-10T06:17:03.853Z,41.92
2022-08-10T06:19:02.987Z,41.88
2022-08-10T06:21:03.220Z,41.84
2022-08-10T06:23:03.225Z,41.79
2022-08-10T06:27:04.430Z,40.74
2022-08-10T06:29:04.309Z,39.80
2022-08-10T06:31:03.621Z,39.19
2022-08-10T06:33:03.716Z,38.38
2022-08-10T06:35:04.064Z,37.62
2022-08-10T06:37:03.979Z,36.83
2022-08-10T06:39:29.990Z,36.25
2022-08-10T06:41:05.242Z,35.67
2022-08-10T06:43:04.545Z,35.40
2022-08-10T06:45:04.487Z,35.13
2022-08-10T06:47:04.568Z,34.55
2022-08-10T06:49:04.694Z,33.96
2022-08-10T06:51:04.835Z,33.48
2022-08-10T06:53:04.939Z,33.11
2022-08-10T06:55:05.157Z,32.67
2022-08-10T06:57:20.351Z,32.22
2022-08-10T06:59:06.290Z,31.76
2022-08-10T07:01:05.520Z,31.41
2022-08-10T07:03:08.025Z,31.16
2022-08-10T07:05:05.666Z,30.87
2022-08-10T07:07:05.810Z,30.49
2022-08-10T07:09:05.945Z,30.10
2022-08-10T07:11:10.040Z,29.74
2022-08-10T07:13:07.201Z,29.36
2022-08-10T07:15:06.280Z,28.90
2022-08-10T07:17:06.460Z,28.70
2022-08-10T07:19:06.509Z,28.53
2022-08-10T07:21:06.717Z,28.39
2022-08-10T07:23:57.855Z,28.13
2022-08-10T07:25:07.915Z,27.76
2022-08-10T07:27:07.033Z,27.46
2022-08-10T07:29:07.138Z,27.23
2022-08-10T07:31:36.048Z,27.17
2022-08-10T07:33:08.423Z,26.99
2022-08-10T07:35:07.524Z,26.70
2022-08-10T07:37:07.666Z,26.59
2022-08-10T07:39:07.833Z,26.51
2022-08-10T07:41:07.831Z,26.33
2022-08-10T07:43:08.109Z,26.14
2022-08-10T07:45:08.130Z,26.07
2022-08-10T07:47:08.259Z,25.89
2022-08-10T07:49:15.508Z,25.78
2022-08-10T07:51:09.695Z,25.68
2022-08-10T07:53:08.712Z,25.47
2022-08-10T07:55:08.814Z,25.42
2022-08-10T07:57:09.179Z,25.41
2022-08-10T07:59:09.130Z,25.31
2022-08-10T08:01:09.159Z,25.02
2022-08-10T08:03:09.319Z,24.52
2022-08-10T08:05:09.414Z,24.35
2022-08-10T08:07:09.607Z,24.27
2022-08-10T08:09:09.695Z,24.11
2022-08-10T08:11:09.841Z,24.09
2022-08-10T08:13:10.989Z,23.89
2022-08-10T08:16:15.749Z,23.80
2022-08-10T08:17:11.283Z,23.72
2022-08-10T08:19:27.080Z,23.53
2022-08-10T08:24:04.465Z,23.45
2022-08-10T08:24:04.648Z,23.25
2022-08-10T08:25:14.593Z,23.11
2022-08-10T08:27:10.926Z,23.03
2022-08-10T08:29:10.998Z,22.84
2022-08-10T08:31:11.593Z,22.72
2022-08-10T08:33:11.271Z,22.45
2022-08-10T08:35:12.349Z,22.38
2022-08-10T08:37:11.751Z,22.37
2022-08-10T08:39:11.595Z,22.35
2022-08-10T08:41:11.738Z,22.18
2022-08-10T08:43:11.787Z,21.81
2022-08-10T08:45:11.991Z,21.87
2022-08-10T08:48:01.979Z,21.82
2022-08-10T08:49:13.165Z,21.77
2022-08-10T08:51:13.390Z,21.56
2022-08-10T08:53:21.861Z,21.42
2022-08-10T08:55:56.082Z,21.39
2022-08-10T08:57:13.701Z,21.32
2022-08-10T08:59:13.938Z,21.08
2022-08-10T09:01:12.951Z,20.84
2022-08-10T09:03:12.997Z,20.78
2022-08-10T09:05:13.213Z,20.66
2022-08-10T09:07:39.269Z,20.65
2022-08-10T09:09:14.880Z,20.61
2022-08-10T09:11:13.548Z,20.47
2022-08-10T09:13:13.697Z,20.37
2022-08-10T09:15:40.931Z,20.18
2022-08-10T09:17:14.884Z,19.93
2022-08-10T09:19:19.611Z,19.77
2022-08-10T09:21:15.211Z,19.62
2022-08-10T09:23:15.246Z,19.40
2022-08-10T09:25:14.406Z,19.17
2022-08-10T09:27:14.519Z,18.87
2022-08-10T09:29:14.798Z,18.45
2022-08-10T09:31:23.286Z,18.24
2022-08-10T09:36:21.926Z,18.09
2022-08-10T09:36:23.687Z,18.14
2022-08-10T09:37:16.128Z,17.92
2022-08-10T09:40:56.669Z,17.76
2022-08-10T09:41:16.362Z,17.57
2022-08-10T09:43:25.406Z,17.28
2022-08-10T09:45:16.552Z,17.02
2022-08-10T09:47:15.681Z,16.81
2022-08-10T09:49:18.158Z,16.59
2022-08-10T09:51:42.156Z,16.27
2022-08-10T09:53:16.974Z,15.97
2022-08-10T09:55:16.076Z,15.90
2022-08-10T09:57:55.177Z,15.84
2022-08-10T09:59:56.649Z,16.01
2022-08-10T10:01:58.320Z,16.79
2022-08-10T10:03:19.693Z,17.27
2022-08-10T10:05:16.756Z,16.51
2022-08-10T10:07:16.890Z,15.73
2022-08-10T10:09:16.926Z,15.23
2022-08-10T10:11:17.026Z,14.90
2022-08-10T10:13:17.354Z,14.69
2022-08-10T10:15:25.007Z,14.30
2022-08-10T10:17:18.449Z,14.20
2022-08-10T10:19:17.610Z,14.20
2022-08-10T10:21:54.064Z,14.14
2022-08-10T10:23:18.746Z,13.96
2022-08-10T10:25:20.799Z,13.74
2022-08-10T10:27:17.987Z,13.51
2022-08-10T10:29:57.656Z,13.29
2022-08-10T10:31:19.859Z,13.18
2022-08-10T10:33:18.387Z,13.10
2022-08-10T10:35:18.509Z,12.93
2022-08-10T10:37:18.595Z,12.87
2022-08-10T10:39:23.477Z,12.91
2022-08-10T10:41:19.833Z,12.89
2022-08-10T10:43:18.887Z,12.85
2022-08-10T10:45:19.068Z,12.83
2022-08-10T10:47:19.508Z,12.79
2022-08-10T10:49:19.330Z,12.76
2022-08-10T10:51:19.544Z,12.84
2022-08-10T10:53:19.514Z,12.81
2022-08-10T10:55:19.721Z,12.84
2022-08-10T10:57:19.782Z,12.91
2022-08-10T10:59:54.257Z,12.91
2022-08-10T11:01:21.175Z,12.90
2022-08-10T11:03:20.091Z,13.02
2022-08-10T11:05:20.180Z,13.11
2022-08-10T11:07:22.914Z,13.11
2022-08-10T11:10:03.867Z,13.09
2022-08-10T11:12:00.431Z,13.04
2022-08-10T11:14:26.704Z,13.17
2022-08-10T11:15:21.843Z,13.16
2022-08-10T11:17:20.955Z,13.23
2022-08-10T11:19:21.158Z,13.12
2022-08-10T11:21:21.752Z,13.11
2022-08-10T11:23:22.943Z,13.11
2022-08-10T11:25:25.098Z,13.01
2022-08-10T11:27:22.632Z,13.08
2022-08-10T11:29:28.476Z,13.02
2022-08-10T11:31:22.979Z,13.13
2022-08-10T11:33:30.752Z,13.26
2022-08-10T11:35:23.228Z,13.29
2022-08-10T11:37:22.339Z,13.22
2022-08-10T11:39:22.502Z,13.26
2022-08-10T11:42:07.190Z,13.17
2022-08-10T11:43:25.204Z,13.19
2022-08-10T11:45:37.750Z,13.12
2022-08-10T11:47:34.996Z,13.10
2022-08-10T11:49:23.178Z,13.27
2022-08-10T11:51:26.650Z,13.21
2022-08-10T11:53:24.950Z,13.22
2022-08-10T11:55:23.553Z,13.35
2022-08-10T11:57:23.869Z,13.45
2022-08-10T11:59:23.836Z,13.54
2022-08-10T12:02:57.520Z,13.50
2022-08-10T12:04:52.357Z,13.89
2022-08-10T12:06:55.753Z,13.85
2022-08-10T12:10:02.792Z,13.85
2022-08-10T12:10:52.883Z,13.86
2022-08-10T12:12:52.021Z,13.90
2022-08-10T12:14:52.120Z,13.88
2022-08-10T12:16:52.239Z,13.88
2022-08-10T12:18:52.388Z,13.84
2022-08-10T12:20:52.559Z,13.82
2022-08-10T12:22:52.777Z,13.64
2022-08-10T12:24:52.769Z,13.75
2022-08-10T12:26:52.934Z,13.80
2022-08-10T12:28:53.087Z,14.01
2022-08-10T12:30:53.209Z,14.11
2022-08-10T12:32:53.252Z,14.20
2022-08-10T12:34:53.410Z,14.31
2022-08-10T12:36:53.857Z,14.33
2022-08-10T12:38:53.735Z,14.43
2022-08-10T12:40:53.869Z,14.61
2022-08-10T12:44:04.621Z,14.58
2022-08-10T12:44:55.019Z,14.68
2022-08-10T12:46:54.615Z,14.79
2022-08-10T12:48:54.413Z,14.93
2022-08-10T12:50:54.361Z,15.07
2022-08-10T12:52:54.582Z,15.15
2022-08-10T12:54:54.605Z,15.13
2022-08-10T12:56:54.772Z,15.22
2022-08-10T12:58:58.014Z,15.33
2022-08-10T13:01:15.145Z,15.37
2022-08-10T13:02:56.170Z,15.50
2022-08-10T13:04:55.215Z,15.56
2022-08-10T13:06:55.336Z,15.61
2022-08-10T13:08:55.473Z,15.66
2022-08-10T13:10:55.638Z,15.69
2022-08-10T13:12:55.680Z,15.79
2022-08-10T13:14:55.854Z,15.79
2022-08-10T13:16:56.001Z,15.85
2022-08-10T13:18:56.036Z,15.91
2022-08-10T13:20:56.169Z,15.96
2022-08-10T13:22:56.236Z,15.93
2022-08-10T13:24:56.444Z,16.00
2022-08-10T13:27:25.650Z,16.07
2022-08-10T13:28:57.607Z,16.11
2022-08-10T13:30:56.814Z,16.22
2022-08-10T13:32:56.860Z,16.29
2022-08-10T13:34:56.987Z,16.28
2022-08-10T13:36:57.130Z,16.28
2022-08-10T13:38:57.255Z,16.32
2022-08-10T13:40:57.413Z,16.35
2022-08-10T13:42:57.519Z,16.39
2022-08-10T13:44:57.691Z,16.43
2022-08-10T13:46:57.852Z,16.51
2022-08-10T13:48:57.899Z,16.51
2022-08-10T13:50:58.047Z,16.59
2022-08-10T13:52:58.118Z,16.64
2022-08-10T13:54:58.208Z,16.70
2022-08-10T13:56:58.391Z,16.65
2022-08-10T13:58:58.444Z,16.68
2022-08-10T14:00:58.655Z,16.78
2022-08-10T14:02:58.749Z,16.89
2022-08-10T14:04:58.877Z,16.96
2022-08-10T14:06:59.019Z,16.99
2022-08-10T14:08:59.297Z,16.96
2022-08-10T14:11:08.508Z,17.03
2022-08-10T14:13:00.416Z,17.07
2022-08-10T14:14:59.550Z,17.09
2022-08-10T14:16:59.683Z,17.12
2022-08-10T14:18:59.814Z,17.16
2022-08-10T14:20:59.917Z,17.19
2022-08-10T14:23:00.114Z,17.24
2022-08-10T14:25:00.210Z,17.28
2022-08-10T14:27:00.369Z,17.31
2022-08-10T14:29:00.496Z,17.35
2022-08-10T14:31:00.866Z,17.36
2022-08-10T14:33:00.799Z,17.37
2022-08-10T14:36:20.426Z,17.38
2022-08-10T14:37:02.117Z,17.40
2022-08-10T14:39:01.141Z,17.50
2022-08-10T14:41:01.294Z,17.54
2022-08-10T14:43:01.919Z,17.57
2022-08-10T14:45:02.502Z,17.60
2022-08-10T14:47:06.482Z,17.61
2022-08-10T14:49:26.365Z,17.63
2022-08-10T14:51:02.910Z,17.62
2022-08-10T14:53:02.100Z,17.62
2022-08-10T14:55:02.230Z,17.61
2022-08-10T14:57:02.358Z,17.63
2022-08-10T14:59:06.733Z,17.59
2022-08-10T15:01:02.694Z,17.67
2022-08-10T15:03:02.815Z,17.69
2022-08-10T15:05:04.022Z,17.72
2022-08-10T15:07:03.972Z,17.76
2022-08-10T15:09:04.147Z,17.81
2022-08-10T15:11:04.366Z,17.86
2022-08-10T15:13:03.421Z,17.88
2022-08-10T15:15:03.498Z,17.90
2022-08-10T15:17:03.652Z,17.95
2022-08-10T15:19:03.748Z,17.94
2022-08-10T15:21:17.507Z,17.93
2022-08-10T15:23:05.264Z,17.93
2022-08-10T15:25:04.209Z,17.98
2022-08-10T15:27:04.337Z,18.02
2022-08-10T15:29:23.840Z,18.04
2022-08-10T15:31:05.730Z,18.10
2022-08-10T15:33:04.727Z,18.14
2022-08-10T15:35:04.928Z,18.18
2022-08-10T15:37:39.966Z,18.18
2022-08-10T15:39:11.171Z,18.18
2022-08-10T15:41:07.177Z,18.20
2022-08-10T15:43:20.161Z,18.27
2022-08-10T15:45:06.514Z,18.33
2022-08-10T15:47:05.682Z,18.33
2022-08-10T15:49:05.890Z,18.35
2022-08-10T15:51:06.290Z,18.34
2022-08-10T15:53:06.100Z,18.40
2022-08-10T15:55:44.070Z,18.45
2022-08-10T15:57:07.355Z,18.54
2022-08-10T15:59:08.345Z,18.58
2022-08-10T16:02:03.942Z,18.63
2022-08-10T16:03:07.824Z,18.64
2022-08-10T16:05:07.936Z,18.69
2022-08-10T16:07:07.067Z,18.75
2022-08-10T16:10:23.698Z,18.79
2022-08-10T16:11:08.348Z,18.83
2022-08-10T16:14:00.041Z,18.89
2022-08-10T16:15:09.095Z,18.90
2022-08-10T16:17:07.865Z,18.89
2022-08-10T16:19:13.654Z,18.91
2022-08-10T16:21:09.086Z,18.96
2022-08-10T16:23:08.190Z,18.99
2022-08-10T16:25:08.439Z,19.05
2022-08-10T16:27:08.532Z,19.08
2022-08-10T16:29:08.626Z,19.09
2022-08-10T16:31:08.753Z,19.14
2022-08-10T16:33:08.939Z,19.18
2022-08-10T16:35:09.731Z,19.22
2022-08-10T16:37:09.176Z,19.24
2022-08-10T16:39:18.010Z,19.29
2022-08-10T16:42:02.118Z,19.37
2022-08-10T16:43:10.610Z,19.43
2022-08-10T16:45:09.670Z,19.46
2022-08-10T16:47:10.016Z,19.51
2022-08-10T16:49:09.960Z,19.56
2022-08-10T16:51:10.099Z,19.60
2022-08-10T16:53:10.201Z,19.64
2022-08-10T16:55:17.129Z,19.66
2022-08-10T16:57:11.475Z,19.70
2022-08-10T16:59:10.596Z,19.74
2022-08-10T17:01:11.861Z,19.74
2022-08-10T17:03:22.906Z,19.77
2022-08-10T17:05:11.989Z,19.82
2022-08-10T17:07:11.266Z,19.86
2022-08-10T17:09:11.256Z,19.89
2022-08-10T17:11:11.413Z,19.88
2022-08-10T17:13:11.719Z,19.89
2022-08-10T17:15:11.904Z,19.96
2022-08-10T17:17:11.843Z,20.00
2022-08-10T17:19:11.935Z,20.06
2022-08-10T17:21:12.054Z,20.03
2022-08-10T17:23:12.238Z,20.04
2022-08-10T17:25:13.321Z,20.12
2022-08-10T17:28:03.924Z,20.16
2022-08-10T17:29:17.476Z,20.22
2022-08-10T17:31:39.767Z,20.28
2022-08-10T17:33:13.894Z,20.33
2022-08-10T17:35:13.216Z,20.37
2022-08-10T17:37:13.148Z,20.40
2022-08-10T17:39:13.411Z,20.44
2022-08-10T17:41:13.412Z,20.49
2022-08-10T17:43:13.678Z,20.48
2022-08-10T17:45:16.371Z,20.50
2022-08-10T17:47:14.737Z,20.57
2022-08-10T17:49:14.020Z,20.61
2022-08-10T17:51:14.111Z,20.66
2022-08-10T17:53:14.210Z,20.71
2022-08-10T17:55:14.300Z,20.77
2022-08-10T17:57:14.566Z,20.84
2022-08-10T17:59:17.548Z,20.91
2022-08-10T18:01:40.294Z,20.96
2022-08-10T18:03:25.309Z,21.02
2022-08-10T18:05:15.980Z,21.09
2022-08-10T18:07:15.116Z,21.16
2022-08-10T18:09:15.261Z,21.25
2022-08-10T18:11:15.356Z,21.38
2022-08-10T18:13:15.804Z,21.59
2022-08-10T18:15:15.696Z,21.75
2022-08-10T18:17:15.745Z,21.84
2022-08-10T18:19:15.886Z,22.00
2022-08-10T18:21:16.043Z,22.21
2022-08-10T18:23:16.093Z,22.43
2022-08-10T18:25:16.202Z,22.55
2022-08-10T18:27:16.393Z,22.76
2022-08-10T18:29:18.683Z,22.95
2022-08-10T18:31:16.517Z,23.18
2022-08-10T18:33:16.636Z,23.36
2022-08-10T18:35:17.012Z,23.50
2022-08-10T18:37:20.170Z,23.67
2022-08-10T18:39:17.029Z,23.78
2022-08-10T18:41:17.105Z,23.91
2022-08-10T18:44:05.885Z,24.01
2022-08-10T18:45:21.136Z,24.18
2022-08-10T18:47:17.490Z,24.31
2022-08-10T18:49:17.567Z,24.42
2022-08-10T18:51:17.873Z,24.51
2022-08-10T18:53:17.871Z,24.60
2022-08-10T18:55:22.889Z,24.66
2022-08-10T18:57:23.505Z,24.74
2022-08-10T18:59:18.298Z,24.77
2022-08-10T19:01:18.559Z,24.80
2022-08-10T19:03:18.592Z,24.88
2022-08-10T19:05:30.126Z,24.95
2022-08-10T19:07:19.809Z,24.97
2022-08-10T19:09:45.586Z,24.98
2022-08-10T19:11:20.117Z,25.00
2022-08-10T19:13:19.216Z,25.03
2022-08-10T19:15:19.306Z,25.06
2022-08-10T19:17:19.462Z,25.08
2022-08-10T19:19:22.476Z,25.12
2022-08-10T19:21:19.871Z,25.17
2022-08-10T19:23:19.839Z,25.18
2022-08-10T19:25:19.922Z,25.20
2022-08-10T19:27:21.016Z,25.27
2022-08-10T19:30:08.172Z,25.30
2022-08-10T19:31:21.340Z,25.32
2022-08-10T19:33:20.394Z,25.38
2022-08-10T19:35:20.596Z,25.41
2022-08-10T19:37:20.606Z,25.43
2022-08-10T19:39:20.730Z,25.49
2022-08-10T19:41:20.828Z,25.53
2022-08-10T19:43:59.028Z,25.55
2022-08-10T19:45:55.985Z,25.57
2022-08-10T19:47:22.208Z,25.62
2022-08-10T19:49:21.322Z,25.63
2022-08-10T19:51:21.420Z,25.63
2022-08-10T19:53:22.868Z,25.66
2022-08-10T19:55:21.654Z,25.70
2022-08-10T19:57:21.749Z,25.73
2022-08-10T20:00:06.269Z,25.77
2022-08-10T20:01:23.120Z,25.82
2022-08-10T20:03:22.218Z,25.84
2022-08-10T20:05:22.258Z,25.90
2022-08-10T20:07:22.419Z,25.95
2022-08-10T20:09:22.519Z,25.95
2022-08-10T20:11:44.195Z,25.98
2022-08-10T20:13:23.741Z,26.03
2022-08-10T20:15:22.901Z,26.06
2022-08-10T20:17:23.022Z,26.08
2022-08-10T20:19:23.116Z,26.12
2022-08-10T20:21:23.315Z,26.14
2022-08-10T20:23:23.331Z,26.16
2022-08-10T20:25:23.486Z,26.19
2022-08-10T20:27:59.683Z,26.22
2022-08-10T20:29:57.782Z,26.27
2022-08-10T20:31:24.963Z,26.31
2022-08-10T20:33:23.982Z,26.32
2022-08-10T20:35:24.075Z,26.33
2022-08-10T20:37:44.934Z,26.36
2022-08-10T20:39:25.369Z,26.36
2022-08-10T20:41:24.489Z,26.39
2022-08-10T20:43:24.585Z,26.40
2022-08-10T20:45:25.024Z,26.40
2022-08-10T20:47:24.823Z,26.43
2022-08-10T20:49:24.941Z,26.44
2022-08-10T20:51:25.342Z,26.46
2022-08-10T20:53:26.240Z,26.49
2022-08-10T20:55:25.342Z,26.49
2022-08-10T20:57:55.446Z,26.49
2022-08-10T20:59:33.310Z,26.53
2022-08-10T21:02:01.509Z,26.54
2022-08-10T21:03:31.957Z,26.54
2022-08-10T21:05:26.962Z,26.57
2022-08-10T21:07:44.381Z,26.57
2022-08-10T21:09:27.189Z,26.59
2022-08-10T21:11:26.296Z,26.58
2022-08-10T21:13:26.451Z,26.61
2022-08-10T21:15:26.603Z,26.62
2022-08-10T21:17:26.673Z,26.64
2022-08-10T21:19:27.849Z,26.69
2022-08-10T21:21:41.127Z,26.72
2022-08-10T21:23:30.754Z,26.75
2022-08-10T21:25:29.684Z,26.76
2022-08-10T21:27:27.672Z,26.78
2022-08-10T21:29:37.922Z,26.84
2022-08-10T21:31:28.650Z,26.89
2022-08-10T21:33:27.779Z,26.92
2022-08-10T21:35:36.633Z,26.91
2022-08-10T21:37:34.148Z,26.93
2022-08-10T21:39:42.604Z,26.94
2022-08-10T21:41:56.528Z,26.98
2022-08-10T21:43:32.073Z,27.03
2022-08-10T21:45:59.809Z,27.07
2022-08-10T21:47:42.491Z,27.16
2022-08-10T21:49:37.308Z,27.18
2022-08-10T21:52:01.540Z,27.16
2022-08-10T21:53:44.754Z,27.21
2022-08-10T21:55:56.228Z,27.22
2022-08-10T21:57:30.265Z,27.28
2022-08-10T21:59:30.387Z,27.27
2022-08-10T22:01:39.103Z,27.30
2022-08-10T22:03:39.396Z,27.30
2022-08-10T22:05:38.966Z,27.32
2022-08-10T22:07:33.329Z,27.36
2022-08-10T22:09:33.920Z,27.39
2022-08-10T22:11:31.270Z,27.40
2022-08-10T22:13:33.961Z,27.47
2022-08-10T22:16:03.886Z,27.51
2022-08-10T22:17:59.381Z,27.53
2022-08-10T22:19:31.705Z,27.57
2022-08-10T22:21:30.874Z,27.61
2022-08-10T22:23:31.971Z,27.65
2022-08-10T22:25:31.054Z,27.65
2022-08-10T22:27:46.842Z,27.67
2022-08-10T22:29:42.369Z,27.69
2022-08-10T22:31:33.151Z,27.71
2022-08-10T22:33:31.632Z,27.74
2022-08-10T22:35:31.746Z,27.78
2022-08-10T22:37:31.841Z,27.80
2022-08-10T22:40:11.291Z,27.80
2022-08-10T22:41:33.185Z,27.83
2022-08-10T22:43:35.815Z,27.90
2022-08-10T22:45:32.307Z,27.94
2022-08-10T22:47:32.537Z,27.97
2022-08-10T22:49:32.569Z,27.99
2022-08-10T22:51:32.668Z,28.00
2022-08-10T22:53:32.866Z,28.08
2022-08-10T22:55:32.961Z,28.08
2022-08-10T22:57:33.666Z,28.08
2022-08-10T22:59:33.223Z,28.10
2022-08-10T23:01:33.364Z,28.15
2022-08-10T23:03:33.611Z,28.17
2022-08-10T23:05:33.633Z,28.22
2022-08-10T23:07:33.819Z,28.26
2022-08-10T23:09:33.912Z,28.29
2022-08-10T23:11:33.989Z,28.29
2022-08-10T23:13:36.220Z,28.31
2022-08-10T23:15:34.269Z,28.32
2022-08-10T23:18:01.760Z,28.35
2022-08-10T23:19:35.492Z,28.40
2022-08-10T23:22:01.230Z,28.41
2022-08-10T23:23:35.717Z,28.48
2022-08-10T23:25:34.882Z,28.54
2022-08-10T23:27:38.999Z,28.57
2022-08-10T23:29:36.304Z,28.65
2022-08-10T23:32:01.073Z,28.66
2022-08-10T23:33:38.117Z,28.64
2022-08-10T23:36:08.833Z,28.71
2022-08-10T23:37:36.575Z,28.74
2022-08-10T23:39:35.728Z,28.77
2022-08-10T23:41:35.814Z,28.76
2022-08-10T23:44:02.475Z,28.80
2022-08-10T23:45:53.502Z,28.82
2022-08-10T23:47:37.154Z,28.83
2022-08-10T23:49:36.278Z,28.87
2022-08-10T23:51:38.888Z,28.89
2022-08-10T23:53:37.557Z,28.95
2022-08-10T23:55:49.501Z,28.97
2022-08-10T23:57:37.803Z,28.96
2022-08-10T23:59:36.947Z,28.97
